Time;durP1;ratioP1;P1;durP2;ratioP2;P2;SDS_P1;SDS_P2;PMS_P1;PMS_P2;Temp;Humidity;BMP_temperature;BMP_pressure;BME280_temperature;BME280_humidity;BME280_pressure;Samples;Min_cycle;Max_cycle;Signal;HPM_P1;HPM_P2
2021/06/23 00:00:26;;;;;;;5.80;4.00;;;;;;;14.01;65.36;101978.56;4895743;29;20407;-38
2021/06/23 00:02:54;;;;;;;5.55;4.55;;;;;;;14.00;65.34;101976.97;4909149;29;20140;-38
2021/06/23 00:05:23;;;;;;;8.50;4.38;;;;;;;13.98;65.64;101982.84;4914918;29;20111;-38
2021/06/23 00:07:51;;;;;;;7.97;3.88;;;;;;;13.99;65.73;101989.25;4914164;29;20047;-38
2021/06/23 00:10:18;;;;;;;4.53;3.55;;;;;;;13.93;65.77;101977.47;4915268;29;20040;-38
2021/06/23 00:12:47;;;;;;;4.53;3.05;;;;;;;13.92;65.87;101977.84;4915845;29;20549;-38
2021/06/23 00:15:16;;;;;;;3.35;3.05;;;;;;;13.91;65.95;101982.56;4914327;29;20048;-38
2021/06/23 00:17:44;;;;;;;5.22;3.25;;;;;;;13.82;66.13;101979.03;4915131;29;20044;-38
2021/06/23 00:20:13;;;;;;;6.30;3.50;;;;;;;13.90;66.04;101980.94;4914690;29;20036;-38
2021/06/23 00:22:41;;;;;;;3.80;3.35;;;;;;;13.97;65.84;101975.66;4912951;29;20483;-38
2021/06/23 00:25:08;;;;;;;6.95;3.53;;;;;;;13.93;65.95;101971.91;4914114;29;20115;-38
2021/06/23 00:27:35;;;;;;;2.88;2.55;;;;;;;13.94;65.88;101973.56;4915563;29;20075;-38
2021/06/23 00:30:03;;;;;;;5.35;3.00;;;;;;;13.88;66.24;101968.50;4930350;29;20052;-38
2021/06/23 00:32:34;;;;;;;3.17;2.88;;;;;;;13.81;66.21;101957.94;4915457;29;20096;-38
2021/06/23 00:35:02;;;;;;;5.60;3.30;;;;;;;13.76;66.60;101960.09;4915115;29;20580;-38
2021/06/23 00:37:29;;;;;;;5.20;3.38;;;;;;;13.72;66.63;101965.50;4915118;29;20047;-39
2021/06/23 00:39:56;;;;;;;4.40;3.65;;;;;;;13.73;66.80;101964.38;4915829;29;20071;-39
2021/06/23 00:42:23;;;;;;;5.15;3.17;;;;;;;13.79;66.79;101963.00;4915125;29;20075;-39
2021/06/23 00:44:50;;;;;;;5.90;3.50;;;;;;;13.77;66.90;101967.25;4915915;29;20107;-39
2021/06/23 00:47:17;;;;;;;3.80;2.88;;;;;;;13.75;66.80;101959.25;4913786;29;20052;-38
2021/06/23 00:49:44;;;;;;;4.47;3.25;;;;;;;13.73;67.06;101956.00;4914835;29;20100;-39
2021/06/23 00:52:11;;;;;;;6.80;3.05;;;;;;;13.71;67.13;101958.31;4903174;29;20051;-40
2021/06/23 00:54:47;;;;;;;4.22;3.15;;;;;;;13.58;67.69;101953.78;4911183;29;20122;-41
2021/06/23 00:57:14;;;;;;;5.32;3.35;;;;;;;13.54;67.61;101961.19;4913183;29;20124;-39
2021/06/23 00:59:43;;;;;;;4.60;3.40;;;;;;;13.54;67.55;101954.81;4894753;29;20402;-38
2021/06/23 01:02:12;;;;;;;3.97;2.72;;;;;;;13.63;67.47;101952.81;4894531;29;20052;-39
2021/06/23 01:04:39;;;;;;;4.57;3.35;;;;;;;13.64;67.31;101948.84;4894546;29;20596;-39
2021/06/23 01:07:06;;;;;;;5.13;3.92;;;;;;;13.60;67.52;101962.63;4894583;29;20546;-39
2021/06/23 01:09:33;;;;;;;4.13;3.03;;;;;;;13.59;67.46;101958.22;4895106;29;20048;-41
2021/06/23 01:12:23;;;;;;;4.40;3.28;;;;;;;13.52;68.77;101960.72;4913202;29;20048;-40
2021/06/23 01:14:59;;;;;;;4.13;3.40;;;;;;;13.59;67.78;101949.88;4912865;29;20059;-38
2021/06/23 01:17:34;;;;;;;4.45;4.00;;;;;;;13.54;68.00;101955.63;4896519;29;20649;-39
2021/06/23 01:20:22;;;;;;;3.40;3.10;;;;;;;13.44;67.73;101956.00;4922829;29;20071;-39
2021/06/23 01:23:11;;;;;;;4.03;3.53;;;;;;;13.49;67.46;101949.44;4916712;29;20052;-39
2021/06/23 01:25:58;;;;;;;3.97;3.67;;;;;;;13.45;67.86;101949.28;4911070;29;20117;-39
2021/06/23 01:28:45;;;;;;;4.18;3.78;;;;;;;13.43;67.77;101946.03;4896304;29;20052;-43
2021/06/23 01:31:34;;;;;;;4.13;3.72;;;;;;;13.37;67.87;101942.63;4895590;29;20067;-39
2021/06/23 01:34:21;;;;;;;10.88;3.50;;;;;;;13.38;67.92;101946.22;4894752;29;20056;-39
2021/06/23 01:37:09;;;;;;;5.03;3.65;;;;;;;13.35;68.16;101946.88;4903100;29;20056;-40
2021/06/23 01:39:59;;;;;;;6.15;3.55;;;;;;;13.32;68.12;101951.16;4898533;29;20059;-39
2021/06/23 01:42:47;;;;;;;4.38;3.50;;;;;;;13.32;68.21;101950.31;4912350;29;20549;-41
2021/06/23 01:45:34;;;;;;;5.30;3.30;;;;;;;13.30;68.47;101941.50;4913233;29;20078;-39
2021/06/23 01:48:23;;;;;;;4.93;3.65;;;;;;;13.32;68.49;101944.75;4912878;29;20052;-39
2021/06/23 01:51:10;;;;;;;4.95;3.85;;;;;;;13.31;68.39;101934.81;4910424;29;20052;-39
2021/06/23 01:53:57;;;;;;;5.28;3.83;;;;;;;13.26;68.61;101935.78;4913583;29;20052;-39
2021/06/23 01:56:45;;;;;;;4.50;4.10;;;;;;;13.12;69.23;101928.84;4914042;29;20603;-40
2021/06/23 01:59:22;;;;;;;6.95;3.72;;;;;;;13.10;69.23;101936.72;4912864;29;20044;-40
2021/06/23 02:02:06;;;;;;;3.88;3.38;;;;;;;13.14;70.13;101927.34;4915218;29;20047;-40
2021/06/23 02:04:48;;;;;;;4.10;3.47;;;;;;;13.13;70.51;101930.47;4916154;29;20052;-40
2021/06/23 02:07:45;;;;;;;4.47;3.27;;;;;;;13.10;71.25;101928.38;4915999;29;20044;-42
2021/06/23 02:10:25;;;;;;;5.15;3.67;;;;;;;13.14;69.64;101927.34;4924912;29;20056;-40
2021/06/23 02:13:28;;;;;;;5.15;3.20;;;;;;;13.16;69.63;101929.78;4912080;29;20059;-39
2021/06/23 02:16:23;;;;;;;4.20;3.05;;;;;;;13.21;70.08;101932.41;4913494;29;20056;-41
2021/06/23 02:19:11;;;;;;;6.13;3.35;;;;;;;13.20;69.51;101933.56;4902796;29;20513;-40
2021/06/23 02:22:00;;;;;;;4.45;3.38;;;;;;;13.19;69.83;101926.34;4916470;29;20080;-40
2021/06/23 02:24:50;;;;;;;8.45;4.47;;;;;;;13.17;69.81;101928.66;4902609;29;20060;-40
2021/06/23 02:27:41;;;;;;;4.80;3.72;;;;;;;13.13;70.32;101928.50;4905422;29;20496;-40
2021/06/23 02:30:13;;;;;;;5.60;3.83;;;;;;;13.18;70.49;101933.06;4926911;29;20048;-40
2021/06/23 02:32:41;;;;;;;5.75;3.65;;;;;;;13.23;70.20;101919.81;4916922;29;20083;-42
2021/06/23 02:35:09;;;;;;;6.25;3.30;;;;;;;13.22;70.19;101917.34;4917570;29;20135;-40
2021/06/23 02:37:37;;;;;;;5.38;3.10;;;;;;;13.22;70.52;101914.56;4926518;29;20048;-40
2021/06/23 02:40:06;;;;;;;6.55;2.83;;;;;;;13.20;70.37;101917.69;4936604;29;20138;-40
2021/06/23 02:42:35;;;;;;;7.53;3.25;;;;;;;13.14;70.76;101909.84;4936374;29;20134;-40
2021/06/23 02:45:02;;;;;;;3.78;2.80;;;;;;;13.16;70.90;101908.38;4929092;29;20071;-39
2021/06/23 02:47:29;;;;;;;4.00;2.70;;;;;;;13.10;70.88;101908.91;4917748;29;20146;-39
2021/06/23 02:49:56;;;;;;;3.00;2.70;;;;;;;13.13;70.82;101909.03;4917364;29;20079;-39
2021/06/23 02:52:24;;;;;;;4.05;2.53;;;;;;;13.08;71.02;101900.09;4917079;29;20506;-39
2021/06/23 02:54:52;;;;;;;4.38;2.65;;;;;;;13.01;71.55;101908.06;4917143;29;20439;-39
2021/06/23 02:57:20;;;;;;;3.03;2.45;;;;;;;13.05;71.46;101906.28;4917099;29;20056;-40
2021/06/23 02:59:47;;;;;;;5.85;2.40;;;;;;;13.10;71.62;101900.56;4917075;29;20134;-40
2021/06/23 03:02:14;;;;;;;2.78;2.35;;;;;;;13.09;71.66;101904.47;4925098;29;20079;-40
2021/06/23 03:04:45;;;;;;;3.00;2.60;;;;;;;12.97;72.22;101893.22;4934762;29;20043;-41
2021/06/23 03:07:14;;;;;;;3.08;2.35;;;;;;;13.00;72.02;101898.13;4897188;29;20095;-40
2021/06/23 03:10:07;;;;;;;5.93;2.60;;;;;;;13.01;72.44;101895.00;4893376;29;20087;-39
2021/06/23 03:12:54;;;;;;;3.15;2.30;;;;;;;13.07;71.91;101898.44;4903636;29;20056;-40
2021/06/23 03:15:36;;;;;;;2.40;2.03;;;;;;;13.02;72.06;101885.53;4916793;29;20096;-39
2021/06/23 03:18:04;;;;;;;2.95;1.75;;;;;;;13.01;72.07;101889.44;4916729;29;20115;-40
2021/06/23 03:20:31;;;;;;;1.88;1.77;;;;;;;12.98;71.99;101886.50;4934472;29;20043;-39
2021/06/23 03:22:58;;;;;;;3.20;1.75;;;;;;;12.95;72.17;101879.66;4925430;29;20087;-40
2021/06/23 03:25:25;;;;;;;1.45;1.35;;;;;;;12.94;72.37;101883.59;4899324;29;20123;-39
2021/06/23 03:27:56;;;;;;;3.13;1.55;;;;;;;12.88;72.72;101872.97;4911555;29;20142;-39
2021/06/23 03:30:25;;;;;;;1.88;1.35;;;;;;;12.91;72.37;101869.53;4916610;29;20474;-39
2021/06/23 03:32:53;;;;;;;3.63;0.98;;;;;;;12.85;72.85;101874.47;4916737;29;20482;-39
2021/06/23 03:35:21;;;;;;;1.40;1.10;;;;;;;12.79;72.84;101876.59;4917048;29;20052;-39
2021/06/23 03:37:49;;;;;;;1.20;1.10;;;;;;;12.81;72.96;101873.50;4915966;29;20392;-40
2021/06/23 03:40:17;;;;;;;1.48;1.00;;;;;;;12.81;72.81;101868.75;4916468;29;20063;-39
2021/06/23 03:42:44;;;;;;;0.90;0.90;;;;;;;12.80;72.95;101878.25;4916556;29;20131;-40
2021/06/23 03:45:13;;;;;;;1.45;1.00;;;;;;;12.81;73.00;101879.84;4916174;29;20051;-39
2021/06/23 03:47:44;;;;;;;1.63;1.38;;;;;;;12.79;73.07;101873.81;4916274;29;20124;-39
2021/06/23 03:50:13;;;;;;;0.95;0.93;;;;;;;12.76;73.25;101880.03;4915243;29;20092;-39
2021/06/23 03:52:40;;;;;;;1.40;1.30;;;;;;;12.67;73.61;101879.28;4919185;29;20047;-40
2021/06/23 03:55:19;;;;;;;1.15;1.05;;;;;;;12.65;73.88;101881.56;4934365;29;20048;-41
2021/06/23 03:57:47;;;;;;;1.30;1.20;;;;;;;12.70;73.82;101873.06;4916713;29;20540;-41
2021/06/23 04:00:35;;;;;;;2.67;1.55;;;;;;;12.67;73.92;101873.72;4934712;29;20048;-40
2021/06/23 04:03:22;;;;;;;1.45;1.35;;;;;;;12.69;73.82;101871.41;4933626;29;20113;-40
2021/06/23 04:06:09;;;;;;;1.20;1.05;;;;;;;12.75;73.61;101872.88;4935651;29;20047;-40
2021/06/23 04:08:56;;;;;;;3.90;1.20;;;;;;;12.81;73.64;101868.75;4923500;29;20052;-39
2021/06/23 04:11:43;;;;;;;0.70;0.70;;;;;;;12.75;74.02;101870.09;4915013;29;20054;-39
2021/06/23 04:14:30;;;;;;;2.45;1.10;;;;;;;12.81;73.76;101863.19;4914374;29;20040;-39
2021/06/23 04:17:17;;;;;;;1.70;1.02;;;;;;;12.83;73.88;101866.47;4923813;29;20039;-40
2021/06/23 04:20:09;;;;;;;2.63;1.15;;;;;;;12.81;74.09;101873.50;4933345;29;20059;-39
2021/06/23 04:22:45;;;;;;;1.83;0.75;;;;;;;12.81;73.83;101874.31;4933761;29;20083;-39
2021/06/23 04:25:13;;;;;;;1.27;0.80;;;;;;;12.86;74.22;101866.94;4915703;29;20091;-40
2021/06/23 04:27:41;;;;;;;0.93;0.90;;;;;;;12.82;74.20;101866.78;4909727;29;20048;-39
2021/06/23 04:30:11;;;;;;;0.80;0.80;;;;;;;12.81;74.29;101867.94;4915394;29;20076;-39
2021/06/23 04:32:38;;;;;;;0.98;0.82;;;;;;;12.78;74.40;101875.00;4915864;29;20044;-39
2021/06/23 04:35:07;;;;;;;0.82;0.80;;;;;;;12.81;74.54;101867.94;4915613;29;20076;-40
2021/06/23 04:37:36;;;;;;;1.75;0.80;;;;;;;12.81;74.42;101879.06;4915236;29;20079;-39
2021/06/23 04:40:05;;;;;;;1.13;0.80;;;;;;;12.83;74.49;101868.44;4915405;29;20138;-40
2021/06/23 04:42:32;;;;;;;0.75;0.75;;;;;;;12.80;74.26;101869.91;4915494;29;20131;-40
2021/06/23 04:44:59;;;;;;;0.73;0.60;;;;;;;12.84;74.35;101868.09;4928702;29;20508;-40
2021/06/23 04:47:31;;;;;;;2.03;1.25;;;;;;;12.82;74.38;101864.81;4926054;29;20060;-40
2021/06/23 04:49:58;;;;;;;0.85;0.77;;;;;;;12.82;74.54;101864.00;4915430;29;20052;-40
2021/06/23 04:52:26;;;;;;;1.17;0.80;;;;;;;12.81;74.62;101856.84;4915433;29;20048;-39
2021/06/23 04:54:52;;;;;;;1.02;0.70;;;;;;;12.82;74.64;101853.72;4915502;29;20451;-40
2021/06/23 04:57:19;;;;;;;0.98;0.85;;;;;;;12.79;74.88;101864.66;4914812;29;20059;-39
2021/06/23 04:59:46;;;;;;;0.73;0.73;;;;;;;12.80;74.95;101861.56;4915595;29;20202;-39
2021/06/23 05:02:13;;;;;;;0.85;0.85;;;;;;;12.83;74.95;101866.47;4915938;29;20106;-39
2021/06/23 05:04:43;;;;;;;0.85;0.65;;;;;;;12.81;75.09;101856.84;4914005;29;20106;-39
2021/06/23 05:07:10;;;;;;;2.28;1.73;;;;;;;12.86;75.08;101859.44;4914687;29;20052;-39
2021/06/23 05:09:38;;;;;;;1.73;1.00;;;;;;;12.87;75.09;101874.94;4914369;29;20068;-40
2021/06/23 05:12:06;;;;;;;1.33;0.98;;;;;;;12.79;75.41;101865.50;4915047;29;20092;-40
2021/06/23 05:14:33;;;;;;;0.80;0.80;;;;;;;12.88;75.19;101878.53;4914564;29;20107;-41
2021/06/23 05:17:00;;;;;;;6.05;1.92;;;;;;;12.86;75.19;101873.31;4914514;29;20126;-40
2021/06/23 05:19:28;;;;;;;1.08;1.08;;;;;;;12.92;75.13;101876.75;4915352;29;20048;-40
2021/06/23 05:21:56;;;;;;;1.30;0.75;;;;;;;12.96;75.10;101878.50;4897755;29;20512;-41
2021/06/23 05:24:24;;;;;;;2.85;0.98;;;;;;;12.93;75.08;101881.94;4902774;29;20498;-40
2021/06/23 05:26:50;;;;;;;1.95;0.93;;;;;;;12.95;75.22;101884.38;4897352;29;20061;-40
2021/06/23 05:29:20;;;;;;;0.63;0.63;;;;;;;12.91;75.62;101872.31;4914951;29;20087;-41
2021/06/23 05:31:48;;;;;;;1.30;0.80;;;;;;;12.94;75.32;101880.00;4912982;29;20494;-41
2021/06/23 05:34:15;;;;;;;1.27;0.82;;;;;;;12.92;75.48;101876.75;4914526;29;20060;-40
2021/06/23 05:36:44;;;;;;;1.05;0.95;;;;;;;12.90;75.45;101882.63;4917044;29;20044;-40
2021/06/23 05:39:10;;;;;;;1.23;0.93;;;;;;;12.91;75.48;101878.69;4918570;29;20056;-40
2021/06/23 05:41:37;;;;;;;1.98;1.00;;;;;;;12.92;75.65;101879.53;4918878;29;20138;-41
2021/06/23 05:44:04;;;;;;;1.30;0.70;;;;;;;12.90;75.68;101887.34;4918799;29;20194;-40
2021/06/23 05:46:31;;;;;;;1.42;0.90;;;;;;;12.93;75.77;101887.50;4901690;29;20060;-40
2021/06/23 05:48:58;;;;;;;1.27;1.23;;;;;;;12.95;75.61;101890.75;4917817;29;20052;-39
2021/06/23 05:51:27;;;;;;;2.40;2.13;;;;;;;13.00;75.29;101892.56;4918783;29;20052;-40
2021/06/23 05:53:53;;;;;;;2.85;1.20;;;;;;;13.02;75.58;101884.69;4918712;29;20458;-40
2021/06/23 05:56:21;;;;;;;1.52;1.10;;;;;;;13.06;75.59;101885.66;4917502;29;20048;-40
2021/06/23 05:58:49;;;;;;;1.40;0.85;;;;;;;13.08;75.61;101888.97;4917207;29;20052;-40
2021/06/23 06:01:16;;;;;;;1.10;1.00;;;;;;;13.06;75.57;101888.44;4917037;29;20064;-40
2021/06/23 06:03:45;;;;;;;2.65;1.05;;;;;;;13.03;75.88;101880.75;4917075;29;20068;-40
2021/06/23 06:06:14;;;;;;;2.45;1.13;;;;;;;12.97;76.28;101885.72;4915888;29;20036;-40
2021/06/23 06:08:41;;;;;;;2.40;1.00;;;;;;;12.97;76.28;101898.78;4917281;29;20446;-40
2021/06/23 06:11:08;;;;;;;2.75;1.13;;;;;;;12.98;76.15;101894.84;4917045;29;20143;-40
2021/06/23 06:13:35;;;;;;;1.55;0.90;;;;;;;13.02;76.16;101895.81;4916855;29;20075;-39
2021/06/23 06:16:03;;;;;;;0.88;0.80;;;;;;;13.00;76.06;101898.13;4916953;29;21111;-39
2021/06/23 06:18:31;;;;;;;1.23;1.02;;;;;;;12.96;76.49;101897.97;4916728;29;20131;-42
2021/06/23 06:20:59;;;;;;;2.45;1.00;;;;;;;12.98;76.35;101894.84;4916720;29;20063;-39
2021/06/23 06:23:26;;;;;;;1.00;0.95;;;;;;;13.00;76.47;101887.00;4911930;29;20494;-39
2021/06/23 06:25:53;;;;;;;0.80;0.80;;;;;;;13.03;76.59;101891.88;4904649;29;20497;-39
2021/06/23 06:28:20;;;;;;;1.48;0.70;;;;;;;13.06;76.46;101891.22;4916174;29;20083;-39
2021/06/23 06:30:47;;;;;;;2.10;0.63;;;;;;;13.05;76.52;101895.16;4917033;29;20087;-39
2021/06/23 06:33:15;;;;;;;0.63;0.63;;;;;;;13.06;76.77;101897.59;4916890;29;20051;-39
2021/06/23 06:35:42;;;;;;;0.80;0.80;;;;;;;13.11;76.59;101889.09;4916371;29;20071;-39
2021/06/23 06:38:09;;;;;;;1.35;0.57;;;;;;;13.13;76.81;101894.34;4916908;29;20078;-38
2021/06/23 06:40:36;;;;;;;1.20;0.90;;;;;;;13.21;76.85;101894.25;4917278;29;20139;-39
2021/06/23 06:43:03;;;;;;;0.80;0.80;;;;;;;13.25;76.66;101900.00;4922534;29;20071;-39
2021/06/23 06:45:30;;;;;;;3.20;0.90;;;;;;;13.28;76.68;101902.91;4936216;29;20058;-39
2021/06/23 06:47:56;;;;;;;0.80;0.60;;;;;;;13.30;76.68;101908.13;4935429;29;20094;-39
2021/06/23 06:50:29;;;;;;;0.55;0.55;;;;;;;13.28;76.60;101900.13;4936252;29;20098;-39
2021/06/23 06:52:56;;;;;;;0.50;0.50;;;;;;;13.29;76.71;101900.97;4936449;29;20071;-39
2021/06/23 06:55:23;;;;;;;1.85;0.50;;;;;;;13.27;76.78;101901.28;4936006;29;20048;-39
2021/06/23 06:57:55;;;;;;;0.57;0.57;;;;;;;13.30;77.01;101902.56;4935995;29;20048;-39
2021/06/23 07:00:23;;;;;;;2.05;0.50;;;;;;;13.32;76.79;101895.53;4934597;29;20127;-39
2021/06/23 07:02:54;;;;;;;0.80;0.35;;;;;;;13.31;76.94;101896.69;4927743;29;20482;-39
2021/06/23 07:05:25;;;;;;;0.95;0.40;;;;;;;13.32;76.83;101897.47;4935440;29;20078;-39
2021/06/23 07:07:53;;;;;;;0.75;0.40;;;;;;;13.33;76.68;101896.34;4932912;29;20565;-39
2021/06/23 07:10:20;;;;;;;1.15;0.68;;;;;;;13.32;77.00;101903.88;4917197;29;20451;-40
2021/06/23 07:12:47;;;;;;;2.47;0.45;;;;;;;13.37;76.69;101903.66;4917362;29;20467;-40
2021/06/23 07:15:15;;;;;;;1.75;0.30;;;;;;;13.33;77.18;101901.91;4917172;29;20120;-40
2021/06/23 07:17:41;;;;;;;0.93;0.30;;;;;;;13.34;77.17;101898.78;4917417;29;20083;-39
2021/06/23 07:20:09;;;;;;;1.83;0.60;;;;;;;13.28;77.74;101900.13;4916870;29;20054;-39
2021/06/23 07:22:37;;;;;;;0.98;0.60;;;;;;;13.34;77.62;101898.78;4916350;29;20052;-40
2021/06/23 07:25:04;;;;;;;0.45;0.40;;;;;;;13.42;77.53;101899.91;4899285;29;20049;-39
2021/06/23 07:27:31;;;;;;;0.35;0.30;;;;;;;13.43;77.42;101901.50;4896586;29;20108;-40
2021/06/23 07:29:58;;;;;;;0.60;0.47;;;;;;;13.44;77.33;101886.47;4897686;29;20135;-39
2021/06/23 07:33:07;;;;;;;0.43;0.43;;;;;;;13.49;77.36;101900.19;4894242;29;20103;-39
2021/06/23 07:39:01;;;;;;;0.38;0.15;;;;;;;13.62;77.33;101904.69;4913465;29;20487;-40
2021/06/23 07:41:51;;;;;;;0.68;0.30;;;;;;;13.62;77.48;101893.53;4912675;29;20458;-44
2021/06/23 07:44:44;;;;;;;0.28;0.17;;;;;;;13.69;77.28;101896.59;4905676;29;20056;-40
2021/06/23 07:47:34;;;;;;;1.52;0.35;;;;;;;13.71;77.48;101901.84;4913157;29;20048;-40
2021/06/23 07:50:22;;;;;;;0.30;0.30;;;;;;;13.75;77.71;101900.81;4914211;29;20573;-42
2021/06/23 07:53:40;;;;;;;0.52;0.22;;;;;;;13.77;77.83;101895.72;4913597;29;20044;-40
2021/06/23 08:08:58;;;;;;;0.32;0.20;;;;;;;14.00;77.61;101902.56;4915067;29;20196;-39
2021/06/23 08:11:50;;;;;;;0.75;0.50;;;;;;;14.05;77.73;101893.22;4898229;29;20070;-40
2021/06/23 08:19:02;;;;;;;0.50;0.20;;;;;;;14.14;78.23;101893.16;4891899;29;20549;-42
2021/06/23 08:21:29;;;;;;;0.38;0.32;;;;;;;14.23;77.57;101897.47;4894410;29;20091;-42
2021/06/23 08:23:56;;;;;;;0.32;0.30;;;;;;;14.26;77.86;101896.78;4912422;29;20480;-42
2021/06/23 08:26:23;;;;;;;0.30;0.20;;;;;;;14.33;77.78;101890.69;4911053;29;20139;-43
2021/06/23 08:28:50;;;;;;;1.20;0.30;;;;;;;14.40;77.77;101890.97;4918573;29;20554;-43
2021/06/23 08:31:17;;;;;;;0.82;0.20;;;;;;;14.46;77.75;101895.13;4911176;29;20488;-48
2021/06/23 08:33:44;;;;;;;0.80;0.52;;;;;;;14.51;77.60;101890.16;4913569;29;20528;-44
2021/06/23 08:36:11;;;;;;;0.52;0.52;;;;;;;14.49;77.85;101897.25;4909817;29;20837;-43
2021/06/23 08:38:38;;;;;;;0.20;0.20;;;;;;;14.48;77.65;101892.84;4910826;29;20051;-44
2021/06/23 08:41:05;;;;;;;0.17;0.17;;;;;;;14.53;77.69;101889.84;4906187;29;20048;-44
2021/06/23 08:43:32;;;;;;;0.75;0.30;;;;;;;14.55;77.69;101890.28;4904899;29;20135;-44
2021/06/23 08:46:01;;;;;;;0.35;0.20;;;;;;;14.54;77.68;101888.66;4915500;29;20135;-46
2021/06/23 08:48:30;;;;;;;0.43;0.20;;;;;;;14.48;77.68;101890.84;4924635;29;20071;-45
2021/06/23 08:51:03;;;;;;;1.92;0.30;;;;;;;14.50;77.72;101891.34;4915023;29;20130;-44
2021/06/23 08:53:29;;;;;;;0.43;0.30;;;;;;;14.54;77.42;101880.28;4911295;29;20447;-44
2021/06/23 08:55:56;;;;;;;0.35;0.30;;;;;;;14.53;77.71;101885.06;4917293;29;20064;-44
2021/06/23 08:58:23;;;;;;;0.63;0.30;;;;;;;14.53;77.56;101882.25;4912013;29;20046;-43
2021/06/23 09:00:52;;;;;;;0.30;0.30;;;;;;;14.58;77.64;101881.25;4914575;29;20076;-46
2021/06/23 09:03:19;;;;;;;1.52;0.60;;;;;;;14.65;77.37;101878.69;4912969;29;20050;-43
2021/06/23 09:05:57;;;;;;;1.48;0.40;;;;;;;14.68;77.56;101879.97;4911322;29;20115;-44
2021/06/23 09:08:33;;;;;;;0.10;0.10;;;;;;;14.70;77.94;101880.44;4911828;29;20112;-43
2021/06/23 09:11:01;;;;;;;0.30;0.30;;;;;;;14.77;77.54;101873.16;4913260;29;20127;-43
2021/06/23 09:13:29;;;;;;;0.50;0.38;;;;;;;14.81;77.44;101874.09;4916086;29;20079;-44
2021/06/23 09:16:01;;;;;;;0.68;0.40;;;;;;;14.90;77.36;101871.19;4914918;29;20052;-44
2021/06/23 09:18:36;;;;;;;0.20;0.20;;;;;;;14.95;77.52;101869.00;4903938;29;20474;-43
2021/06/23 09:21:13;;;;;;;0.57;0.40;;;;;;;14.96;77.46;101867.00;4913840;29;20095;-43
2021/06/23 09:23:41;;;;;;;0.90;0.55;;;;;;;15.03;77.22;101870.88;4921257;29;20048;-44
2021/06/23 09:26:27;;;;;;;0.35;0.35;;;;;;;15.10;77.15;101859.94;4925970;29;20040;-43
2021/06/23 09:29:15;;;;;;;0.52;0.30;;;;;;;15.20;77.49;101869.81;4909091;29;20059;-43
2021/06/23 09:32:05;;;;;;;0.50;0.30;;;;;;;15.23;77.37;101869.94;4904351;29;20051;-43
2021/06/23 09:34:34;;;;;;;1.00;0.30;;;;;;;15.25;77.06;101856.44;4900630;29;20121;-42
2021/06/23 09:37:34;;;;;;;0.40;0.40;;;;;;;15.33;77.17;101859.47;4899258;29;20052;-44
2021/06/23 09:40:14;;;;;;;0.40;0.40;;;;;;;15.37;76.75;101863.16;4903753;29;20051;-44
2021/06/23 09:43:00;;;;;;;1.90;0.50;;;;;;;15.46;76.66;101859.09;4903158;29;20076;-46
2021/06/23 09:45:30;;;;;;;0.47;0.40;;;;;;;15.61;76.41;101863.16;4900763;29;20096;-46
2021/06/23 09:47:59;;;;;;;0.75;0.60;;;;;;;15.67;76.11;101867.34;4915224;29;20151;-43
2021/06/23 09:50:29;;;;;;;0.63;0.50;;;;;;;15.58;76.17;101858.28;4914923;29;20051;-43
2021/06/23 09:52:56;;;;;;;1.48;0.90;;;;;;;15.54;75.96;101862.97;4907452;29;20210;-42
2021/06/23 09:55:42;;;;;;;0.93;0.80;;;;;;;15.46;76.04;101856.31;4915037;29;20496;-44
2021/06/23 09:58:21;;;;;;;0.30;0.30;;;;;;;15.41;76.11;101855.75;4907955;29;20064;-43
2021/06/23 10:01:09;;;;;;;0.40;0.40;;;;;;;15.46;76.32;101859.09;4913090;29;20156;-43
2021/06/23 10:03:58;;;;;;;2.03;0.80;;;;;;;15.48;76.54;101853.19;4923611;29;20047;-43
2021/06/23 10:06:28;;;;;;;0.77;0.77;;;;;;;15.46;76.10;101859.09;4920994;29;20052;-44
2021/06/23 10:09:24;;;;;;;1.10;1.00;;;;;;;15.44;76.15;101858.63;4915510;29;20067;-43
2021/06/23 10:12:06;;;;;;;1.45;1.17;;;;;;;15.33;76.24;101853.88;4917818;29;20997;-43
2021/06/23 10:14:45;;;;;;;1.55;1.27;;;;;;;15.36;76.80;101861.53;4919606;29;20417;-46
2021/06/23 10:17:13;;;;;;;1.00;0.90;;;;;;;15.40;76.38;101868.88;4915665;29;20071;-43
2021/06/23 10:19:41;;;;;;;0.65;0.65;;;;;;;15.46;76.22;101866.69;4913146;29;20048;-44
2021/06/23 10:22:11;;;;;;;1.25;1.00;;;;;;;15.45;76.24;101863.06;4918793;29;20107;-43
2021/06/23 10:24:54;;;;;;;1.73;0.85;;;;;;;15.53;76.21;101855.75;4908870;29;20055;-46
2021/06/23 10:27:23;;;;;;;3.17;1.25;;;;;;;15.59;76.33;101855.16;4915122;29;20135;-50
2021/06/23 10:29:53;;;;;;;1.60;1.25;;;;;;;15.61;76.54;101861.19;4925506;29;20100;-49
2021/06/23 10:32:21;;;;;;;1.80;1.70;;;;;;;15.56;76.78;101861.44;4914295;29;20565;-45
2021/06/23 10:34:48;;;;;;;2.85;1.80;;;;;;;15.63;76.71;101866.41;4901689;29;20139;-45
2021/06/23 10:37:16;;;;;;;1.95;1.55;;;;;;;15.70;76.59;101863.88;4918118;29;20142;-45
2021/06/23 10:39:47;;;;;;;1.92;1.50;;;;;;;15.79;76.60;101864.50;4913133;29;20108;-44
2021/06/23 10:42:14;;;;;;;2.63;1.95;;;;;;;15.88;76.65;101868.00;4909639;29;20127;-44
2021/06/23 10:44:47;;;;;;;1.75;1.50;;;;;;;15.94;76.48;101866.56;4929564;29;20108;-43
2021/06/23 10:47:39;;;;;;;2.03;1.80;;;;;;;15.93;76.49;101856.56;4914135;29;20578;-44
2021/06/23 10:50:09;;;;;;;3.95;2.17;;;;;;;15.96;76.21;101864.25;4900974;29;20123;-45
2021/06/23 10:52:38;;;;;;;1.60;1.45;;;;;;;16.01;76.30;101866.78;4914509;29;20052;-43
2021/06/23 10:55:21;;;;;;;2.95;1.98;;;;;;;16.03;76.18;101864.44;4913127;29;20067;-43
2021/06/23 10:58:03;;;;;;;2.50;2.30;;;;;;;16.01;76.13;101861.19;4912950;29;20128;-46
2021/06/23 11:00:31;;;;;;;2.80;2.30;;;;;;;16.01;76.32;101866.78;4912172;29;20052;-46
2021/06/23 11:03:02;;;;;;;3.25;2.60;;;;;;;16.03;76.74;101861.66;4913271;29;20513;-45
2021/06/23 11:05:41;;;;;;;3.63;2.67;;;;;;;15.99;76.71;101863.50;4912489;29;20079;-45
2021/06/23 11:08:30;;;;;;;5.20;2.85;;;;;;;16.00;77.17;101865.16;4907958;29;20060;-45
2021/06/23 11:10:59;;;;;;;3.03;1.98;;;;;;;16.00;76.79;101859.56;4916068;29;20079;-45
2021/06/23 11:13:30;;;;;;;2.95;2.22;;;;;;;16.00;76.81;101859.56;4918732;29;20075;-44
2021/06/23 11:15:57;;;;;;;3.92;2.70;;;;;;;16.01;76.66;101863.16;4909697;29;20079;-48
2021/06/23 11:18:25;;;;;;;3.17;2.65;;;;;;;16.09;76.84;101868.63;4922565;29;20056;-43
2021/06/23 11:21:02;;;;;;;5.70;2.85;;;;;;;16.14;77.31;101861.94;4912402;29;20087;-44
2021/06/23 11:23:52;;;;;;;5.82;2.97;;;;;;;16.22;77.52;101853.44;4918065;29;20104;-47
2021/06/23 11:26:20;;;;;;;4.30;3.03;;;;;;;16.32;76.81;101860.47;4917994;29;20047;-46
2021/06/23 11:28:51;;;;;;;3.90;3.28;;;;;;;16.34;77.14;101864.53;4930452;29;20166;-48
2021/06/23 11:31:22;;;;;;;3.80;3.30;;;;;;;16.47;76.81;101861.69;4924821;29;20399;-45
2021/06/23 11:33:58;;;;;;;3.67;2.90;;;;;;;16.54;76.90;101853.50;4912274;29;20112;-44
2021/06/23 11:36:26;;;;;;;4.43;3.75;;;;;;;16.64;76.55;101859.38;4914326;29;20047;-43
2021/06/23 11:38:54;;;;;;;5.80;5.03;;;;;;;16.75;76.51;101854.06;4913710;29;20064;-45
2021/06/23 11:41:22;;;;;;;9.80;8.82;;;;;;;16.77;76.67;101854.50;4912848;29;20068;-44
2021/06/23 11:43:52;;;;;;;7.35;6.47;;;;;;;16.87;76.53;101862.38;4922765;29;20540;-44
2021/06/23 11:46:19;;;;;;;5.22;4.72;;;;;;;16.94;76.25;101862.56;4915653;29;20409;-47
2021/06/23 11:48:45;;;;;;;9.38;7.38;;;;;;;16.87;76.10;101857.59;4913818;29;20140;-46
2021/06/23 11:51:13;;;;;;;10.18;8.10;;;;;;;16.88;76.26;101864.81;4911431;29;20104;-44
2021/06/23 11:53:42;;;;;;;9.02;6.53;;;;;;;16.87;76.44;101863.19;4904587;29;20052;-47
2021/06/23 11:56:09;;;;;;;7.97;6.88;;;;;;;16.80;76.56;101870.59;4912961;29;20450;-46
2021/06/23 11:58:36;;;;;;;10.90;7.50;;;;;;;16.78;76.74;101859.78;4913372;29;20088;-46
2021/06/23 12:01:03;;;;;;;4.90;4.30;;;;;;;16.79;76.69;101857.75;4911580;29;20761;-46
2021/06/23 12:03:30;;;;;;;5.15;4.55;;;;;;;16.79;76.52;101857.75;4913114;29;20040;-45
2021/06/23 12:05:56;;;;;;;6.53;5.40;;;;;;;16.76;76.53;101869.69;4904697;29;20052;-46
2021/06/23 12:08:24;;;;;;;6.25;4.63;;;;;;;16.75;76.51;101863.28;4912835;29;20490;-45
2021/06/23 12:10:50;;;;;;;4.82;4.38;;;;;;;16.81;76.68;101864.63;4916478;29;20044;-46